Time;durP1;ratioP1;P1;durP2;ratioP2;P2;SDS_P1;SDS_P2;PMS_P1;PMS_P2;Temp;Humidity;BMP_temperature;BMP_pressure;BME280_temperature;BME280_humidity;BME280_pressure;Samples;Min_cycle;Max_cycle;Signal;HPM_P1;HPM_P2
2023/08/31 00:01:03;;;;;;;;;;;12.80;99.90;;;;;;7318172;19;9311;-71
2023/08/31 00:03:34;;;;;;;;;;;12.70;99.90;;;;;;7321717;19;9135;-71
2023/08/31 00:06:07;;;;;;;;;;;12.80;99.90;;;;;;7314661;19;11134;-71
2023/08/31 00:08:56;;;;;;;;;;;12.80;99.90;;;;;;7320296;19;9180;-71
2023/08/31 00:11:26;;;;;;;;;;;12.70;99.90;;;;;;7318782;19;9228;-71
2023/08/31 00:13:55;;;;;;;;;;;12.70;99.90;;;;;;7321279;19;10062;-71
2023/08/31 00:16:29;;;;;;;;;;;12.70;99.90;;;;;;7311572;19;9487;-71
2023/08/31 00:18:59;;;;;;;;;;;12.70;99.90;;;;;;7318399;19;9304;-71
2023/08/31 00:21:30;;;;;;;;;;;12.70;99.90;;;;;;7321236;19;9248;-71
2023/08/31 00:23:59;;;;;;;;;;;12.60;99.90;;;;;;7321030;19;9372;-72
2023/08/31 00:26:29;;;;;;;;;;;12.60;99.90;;;;;;7315073;19;9615;-71
2023/08/31 00:28:58;;;;;;;;;;;12.70;99.90;;;;;;7319106;19;9241;-71
2023/08/31 00:31:30;;;;;;;;;;;12.60;99.90;;;;;;7320819;19;9265;-71
2023/08/31 00:34:03;;;;;;;;;;;12.50;99.90;;;;;;7320580;19;9340;-71
2023/08/31 00:36:33;;;;;;;;;;;12.50;99.90;;;;;;7313676;19;9479;-71
2023/08/31 00:39:10;;;;;;;;;;;12.40;99.90;;;;;;7322339;19;9151;-70
2023/08/31 00:41:40;;;;;;;;;;;12.30;99.90;;;;;;7321224;19;9582;-71
2023/08/31 00:44:09;;;;;;;;;;;12.30;99.90;;;;;;7318184;19;9535;-71
2023/08/31 00:47:02;;;;;;;;;;;12.30;99.90;;;;;;7312819;19;9253;-71
2023/08/31 00:49:31;;;;;;;;;;;12.20;99.90;;;;;;7319301;19;9313;-71
2023/08/31 00:52:22;;;;;;;;;;;12.20;99.90;;;;;;7316820;19;10164;-71
2023/08/31 00:54:55;;;;;;;;;;;12.30;99.90;;;;;;7310805;19;9410;-71
2023/08/31 00:57:26;;;;;;;;;;;12.20;99.90;;;;;;7316372;19;10205;-71
2023/08/31 00:59:55;;;;;;;;;;;12.20;99.90;;;;;;7320580;19;9416;-71
2023/08/31 01:02:40;;;;;;;;;;;12.20;99.90;;;;;;7321531;19;9190;-71
2023/08/31 01:05:23;;;;;;;;;;;12.10;99.90;;;;;;7310194;19;9156;-71
2023/08/31 01:08:02;;;;;;;;;;;12.00;99.90;;;;;;7317963;19;9195;-71
2023/08/31 01:10:40;;;;;;;;;;;12.00;99.90;;;;;;7315909;19;9180;-70
2023/08/31 01:13:16;;;;;;;;;;;12.00;99.90;;;;;;7319946;19;9221;-70
2023/08/31 01:15:49;;;;;;;;;;;12.10;99.90;;;;;;7310412;19;9268;-71
2023/08/31 01:18:25;;;;;;;;;;;12.10;99.90;;;;;;7319479;19;9404;-71
2023/08/31 01:21:03;;;;;;;;;;;12.10;99.90;;;;;;7320829;19;9273;-71
2023/08/31 01:23:55;;;;;;;;;;;12.00;99.90;;;;;;7318941;19;9253;-71
2023/08/31 01:26:25;;;;;;;;;;;12.00;99.90;;;;;;7310014;19;9312;-71
2023/08/31 01:28:55;;;;;;;;;;;12.00;99.90;;;;;;7316073;19;9468;-71
2023/08/31 01:31:24;;;;;;;;;;;11.90;99.90;;;;;;7314332;19;9236;-71
2023/08/31 01:33:54;;;;;;;;;;;11.90;99.90;;;;;;7319160;19;8944;-71
2023/08/31 01:36:28;;;;;;;;;;;11.80;99.90;;;;;;7313159;19;9232;-70
2023/08/31 01:39:06;;;;;;;;;;;11.80;99.90;;;;;;7317382;19;9267;-71
2023/08/31 01:42:17;;;;;;;;;;;11.70;99.90;;;;;;7294965;19;9202;-71
2023/08/31 01:44:49;;;;;;;;;;;11.70;99.90;;;;;;7303069;19;9183;-71
2023/08/31 01:47:20;;;;;;;;;;;11.70;99.90;;;;;;7315024;19;10330;-70
2023/08/31 01:49:48;;;;;;;;;;;11.70;99.90;;;;;;7324421;19;9441;-71
2023/08/31 01:52:17;;;;;;;;;;;11.70;99.90;;;;;;7324596;19;9123;-70
2023/08/31 01:54:49;;;;;;;;;;;11.70;99.90;;;;;;7314678;19;10808;-71
2023/08/31 01:57:18;;;;;;;;;;;11.60;99.90;;;;;;7322921;19;9229;-71
2023/08/31 01:59:47;;;;;;;;;;;11.50;99.90;;;;;;7325845;19;9300;-71
2023/08/31 02:02:16;;;;;;;;;;;11.50;99.90;;;;;;7324435;19;9442;-71
2023/08/31 02:04:46;;;;;;;;;;;11.40;99.90;;;;;;7317935;19;8944;-71
2023/08/31 02:07:15;;;;;;;;;;;11.30;99.90;;;;;;7320996;19;9476;-70
2023/08/31 02:09:44;;;;;;;;;;;11.20;99.90;;;;;;7325074;19;9252;-70
2023/08/31 02:12:15;;;;;;;;;;;11.20;99.90;;;;;;7321863;19;9261;-71
2023/08/31 02:14:44;;;;;;;;;;;11.10;99.90;;;;;;7315760;19;9581;-71
2023/08/31 02:17:13;;;;;;;;;;;11.10;99.90;;;;;;7323406;19;9491;-71
2023/08/31 02:19:43;;;;;;;;;;;11.00;99.90;;;;;;7324761;19;9298;-70
2023/08/31 02:22:12;;;;;;;;;;;11.00;99.90;;;;;;7323208;19;9183;-71
2023/08/31 02:24:41;;;;;;;;;;;10.90;99.90;;;;;;7317298;19;9365;-71
2023/08/31 02:27:10;;;;;;;;;;;10.80;99.90;;;;;;7324906;19;9554;-70
2023/08/31 02:29:41;;;;;;;;;;;10.80;99.90;;;;;;7321621;19;9335;-71
2023/08/31 02:32:11;;;;;;;;;;;10.80;99.90;;;;;;7321309;19;9233;-71
2023/08/31 02:34:40;;;;;;;;;;;10.80;99.90;;;;;;7316102;19;9123;-70
2023/08/31 02:37:09;;;;;;;;;;;10.80;99.90;;;;;;7323870;19;9247;-71
2023/08/31 02:39:38;;;;;;;;;;;10.80;99.90;;;;;;7321467;19;10379;-70
2023/08/31 02:42:07;;;;;;;;;;;10.80;99.90;;;;;;7321524;19;9489;-71
2023/08/31 02:44:37;;;;;;;;;;;10.70;99.90;;;;;;7315727;19;9204;-71
2023/08/31 02:47:08;;;;;;;;;;;10.60;99.90;;;;;;7323692;19;9253;-70
2023/08/31 02:49:37;;;;;;;;;;;10.60;99.90;;;;;;7323860;19;10145;-71
2023/08/31 02:52:26;;;;;;;;;;;10.50;99.90;;;;;;7319853;19;9453;-71
2023/08/31 02:54:55;;;;;;;;;;;10.50;99.90;;;;;;7312194;19;9506;-71
2023/08/31 02:57:24;;;;;;;;;;;10.50;99.90;;;;;;7322077;19;9256;-71
2023/08/31 02:59:53;;;;;;;;;;;10.50;99.90;;;;;;7321102;19;9259;-70
2023/08/31 03:02:25;;;;;;;;;;;10.50;99.90;;;;;;7324459;19;9259;-70
2023/08/31 03:04:54;;;;;;;;;;;10.50;99.90;;;;;;7317076;19;9327;-71
2023/08/31 03:07:23;;;;;;;;;;;10.40;99.90;;;;;;7317200;19;9382;-70
2023/08/31 03:09:53;;;;;;;;;;;10.50;99.90;;;;;;7322440;19;9206;-71
2023/08/31 03:12:22;;;;;;;;;;;10.50;99.90;;;;;;7323487;19;10792;-71
2023/08/31 03:14:51;;;;;;;;;;;10.50;99.90;;;;;;7314315;19;9277;-71
2023/08/31 03:17:20;;;;;;;;;;;10.60;99.90;;;;;;7322353;19;9458;-71
2023/08/31 03:19:53;;;;;;;;;;;10.60;99.90;;;;;;7323494;19;9369;-70
2023/08/31 03:22:22;;;;;;;;;;;10.60;99.90;;;;;;7323883;19;9208;-70
2023/08/31 03:24:51;;;;;;;;;;;10.60;99.90;;;;;;7314882;19;9245;-71
2023/08/31 03:27:20;;;;;;;;;;;10.70;99.90;;;;;;7323052;19;9233;-71
2023/08/31 03:29:49;;;;;;;;;;;10.70;99.90;;;;;;7323704;19;9240;-70
2023/08/31 03:32:18;;;;;;;;;;;10.80;99.90;;;;;;7324285;19;9579;-70
2023/08/31 03:34:47;;;;;;;;;;;10.90;99.90;;;;;;7316257;19;8944;-71
2023/08/31 03:37:33;;;;;;;;;;;10.90;99.90;;;;;;7323400;19;9149;-71
2023/08/31 03:40:22;;;;;;;;;;;10.90;99.90;;;;;;7321746;19;9533;-71
2023/08/31 03:42:52;;;;;;;;;;;10.80;99.90;;;;;;7322681;19;9176;-70
2023/08/31 03:45:21;;;;;;;;;;;10.90;99.90;;;;;;7313921;19;9248;-71
2023/08/31 03:47:50;;;;;;;;;;;11.00;99.90;;;;;;7322416;19;9268;-71
2023/08/31 03:50:19;;;;;;;;;;;10.90;99.90;;;;;;7323004;19;9435;-71
2023/08/31 03:52:51;;;;;;;;;;;10.90;99.90;;;;;;7323719;19;9610;-71
2023/08/31 03:55:20;;;;;;;;;;;11.00;99.90;;;;;;7315317;19;9312;-71
2023/08/31 03:57:49;;;;;;;;;;;11.00;99.90;;;;;;7322449;19;9337;-70
2023/08/31 04:00:19;;;;;;;;;;;10.90;99.90;;;;;;7318422;19;9624;-71
2023/08/31 04:02:48;;;;;;;;;;;10.90;99.90;;;;;;7319708;19;10569;-71
2023/08/31 04:05:17;;;;;;;;;;;10.90;99.90;;;;;;7310361;19;9256;-70
2023/08/31 04:07:46;;;;;;;;;;;10.90;99.90;;;;;;7321624;19;9367;-71
2023/08/31 04:10:19;;;;;;;;;;;10.80;99.90;;;;;;7319018;19;9193;-70
2023/08/31 04:12:47;;;;;;;;;;;10.80;99.90;;;;;;7321754;19;9229;-71
2023/08/31 04:15:17;;;;;;;;;;;10.70;99.90;;;;;;7311698;19;9142;-71
2023/08/31 04:17:46;;;;;;;;;;;10.70;99.90;;;;;;7319301;19;9815;-71
2023/08/31 04:20:16;;;;;;;;;;;10.70;99.90;;;;;;7319349;19;9564;-71
2023/08/31 04:22:45;;;;;;;;;;;10.70;99.90;;;;;;7320344;19;10339;-71
2023/08/31 04:25:17;;;;;;;;;;;10.70;99.90;;;;;;7313102;19;9266;-71
2023/08/31 04:27:46;;;;;;;;;;;10.70;99.90;;;;;;7320230;19;8944;-70
2023/08/31 04:30:15;;;;;;;;;;;10.70;99.90;;;;;;7320578;19;9452;-70
2023/08/31 04:32:46;;;;;;;;;;;10.70;99.90;;;;;;7321219;19;9558;-71
2023/08/31 04:35:35;;;;;;;;;;;10.70;99.90;;;;;;7311486;19;9168;-71
2023/08/31 04:38:04;;;;;;;;;;;10.70;99.90;;;;;;7321404;19;9557;-71
2023/08/31 04:40:36;;;;;;;;;;;10.70;99.90;;;;;;7321962;19;9253;-71
2023/08/31 04:43:06;;;;;;;;;;;10.70;99.90;;;;;;7321660;19;9531;-71
2023/08/31 04:45:35;;;;;;;;;;;10.70;99.90;;;;;;7310359;19;9244;-70
2023/08/31 04:48:04;;;;;;;;;;;10.70;99.90;;;;;;7321004;19;10388;-70
2023/08/31 04:50:33;;;;;;;;;;;10.80;99.90;;;;;;7320950;19;9169;-70
2023/08/31 04:53:04;;;;;;;;;;;10.80;99.90;;;;;;7320660;19;9230;-71
2023/08/31 04:55:37;;;;;;;;;;;10.80;99.90;;;;;;7309693;19;9248;-71
2023/08/31 04:58:06;;;;;;;;;;;10.80;99.90;;;;;;7318647;19;10400;-71
2023/08/31 05:00:35;;;;;;;;;;;10.90;99.90;;;;;;7318499;19;9367;-71
2023/08/31 05:03:05;;;;;;;;;;;10.90;99.90;;;;;;7306048;19;9534;-70
2023/08/31 05:05:34;;;;;;;;;;;10.90;99.90;;;;;;7311917;19;9477;-72
2023/08/31 05:08:03;;;;;;;;;;;11.00;99.90;;;;;;7306816;19;9747;-71
2023/08/31 05:10:33;;;;;;;;;;;11.00;99.90;;;;;;7319979;19;10774;-71
2023/08/31 05:13:06;;;;;;;;;;;11.00;99.90;;;;;;7320673;19;9245;-70
2023/08/31 05:15:35;;;;;;;;;;;11.00;99.90;;;;;;7320234;19;9281;-71
2023/08/31 05:18:04;;;;;;;;;;;11.00;99.90;;;;;;7314831;19;9307;-71
2023/08/31 05:20:34;;;;;;;;;;;11.00;99.90;;;;;;7324562;19;9421;-70
2023/08/31 05:23:03;;;;;;;;;;;11.10;99.90;;;;;;7324772;19;9240;-70
2023/08/31 05:25:32;;;;;;;;;;;11.20;99.90;;;;;;7326782;19;9446;-71
2023/08/31 05:28:01;;;;;;;;;;;11.30;99.90;;;;;;7317910;19;10700;-71
2023/08/31 05:30:34;;;;;;;;;;;11.40;99.90;;;;;;7323419;19;8948;-70
2023/08/31 05:33:03;;;;;;;;;;;11.50;99.90;;;;;;7322389;19;9284;-71
2023/08/31 05:35:32;;;;;;;;;;;11.60;99.90;;;;;;7326809;19;9698;-70
2023/08/31 05:38:02;;;;;;;;;;;11.80;99.90;;;;;;7319555;19;9268;-70
2023/08/31 05:40:31;;;;;;;;;;;12.00;99.90;;;;;;7326864;19;9523;-71
2023/08/31 05:42:59;;;;;;;;;;;12.00;99.90;;;;;;7323110;19;9445;-70
2023/08/31 05:45:51;;;;;;;;;;;12.10;99.90;;;;;;7323584;19;9508;-71
2023/08/31 05:48:20;;;;;;;;;;;12.20;99.90;;;;;;7318041;19;9357;-71
2023/08/31 05:50:49;;;;;;;;;;;12.40;99.90;;;;;;7326357;19;9584;-71
2023/08/31 05:53:18;;;;;;;;;;;12.50;99.90;;;;;;7325147;19;9397;-71
2023/08/31 05:55:47;;;;;;;;;;;12.60;99.90;;;;;;7325276;19;9249;-70
2023/08/31 05:58:16;;;;;;;;;;;12.60;99.90;;;;;;7316735;19;9261;-71
2023/08/31 06:00:45;;;;;;;;;;;12.80;99.90;;;;;;7325904;19;8995;-71
2023/08/31 06:03:16;;;;;;;;;;;13.00;99.90;;;;;;7324164;19;9448;-71
2023/08/31 06:05:45;;;;;;;;;;;13.00;99.90;;;;;;7318453;19;9166;-71
2023/08/31 06:08:34;;;;;;;;;;;13.00;99.90;;;;;;7323513;19;9655;-75
2023/08/31 06:11:03;;;;;;;;;;;13.00;99.90;;;;;;7321918;19;9276;-70
2023/08/31 06:13:52;;;;;;;;;;;13.00;99.90;;;;;;7320338;19;9379;-71
2023/08/31 06:16:21;;;;;;;;;;;13.30;99.90;;;;;;7315083;19;9480;-71
2023/08/31 06:18:52;;;;;;;;;;;13.80;99.90;;;;;;7324885;19;9470;-71
2023/08/31 06:21:22;;;;;;;;;;;13.70;99.90;;;;;;7309854;19;9464;-72
2023/08/31 06:23:51;;;;;;;;;;;13.70;99.90;;;;;;7315147;19;9228;-72
2023/08/31 06:26:20;;;;;;;;;;;13.70;99.90;;;;;;7318103;19;9283;-73
2023/08/31 06:29:11;;;;;;;;;;;13.70;99.90;;;;;;7321754;19;9241;-74
2023/08/31 06:31:40;;;;;;;;;;;13.60;99.90;;;;;;7319581;19;9237;-73
2023/08/31 06:34:12;;;;;;;;;;;13.90;99.90;;;;;;7313573;19;9408;-73
2023/08/31 06:36:41;;;;;;;;;;;14.00;99.90;;;;;;7316164;19;9255;-73
2023/08/31 06:39:10;;;;;;;;;;;14.10;99.90;;;;;;7321146;19;9280;-73
2023/08/31 06:41:39;;;;;;;;;;;14.10;99.90;;;;;;7322655;19;9241;-73
2023/08/31 06:44:09;;;;;;;;;;;14.30;99.90;;;;;;7313362;19;9472;-73
2023/08/31 06:46:38;;;;;;;;;;;14.60;99.90;;;;;;7318464;19;9274;-72
2023/08/31 06:49:07;;;;;;;;;;;14.70;99.90;;;;;;7323757;19;9496;-74
2023/08/31 06:51:39;;;;;;;;;;;14.40;99.90;;;;;;7325137;19;9402;-73
2023/08/31 06:54:28;;;;;;;;;;;14.80;99.90;;;;;;7314874;19;9305;-73
2023/08/31 06:56:57;;;;;;;;;;;14.90;99.90;;;;;;7322080;19;9276;-73
2023/08/31 06:59:26;;;;;;;;;;;14.90;99.90;;;;;;7320764;19;9146;-73
2023/08/31 07:01:56;;;;;;;;;;;14.70;99.90;;;;;;7319703;19;9564;-74
2023/08/31 07:04:25;;;;;;;;;;;14.80;99.90;;;;;;7316474;19;9390;-74
2023/08/31 07:06:56;;;;;;;;;;;15.00;99.90;;;;;;7315939;19;10988;-74
2023/08/31 07:09:26;;;;;;;;;;;15.40;99.90;;;;;;7321335;19;9270;-74
2023/08/31 07:11:55;;;;;;;;;;;15.60;99.90;;;;;;7319577;19;9478;-74
2023/08/31 07:14:25;;;;;;;;;;;15.50;99.90;;;;;;7316055;19;9300;-73
2023/08/31 07:16:54;;;;;;;;;;;15.80;99.90;;;;;;7322345;19;9132;-73
2023/08/31 07:19:23;;;;;;;;;;;16.00;99.90;;;;;;7323496;19;9192;-73
2023/08/31 07:21:57;;;;;;;;;;;15.50;99.90;;;;;;7320676;19;9572;-74
2023/08/31 07:24:26;;;;;;;;;;;15.70;99.90;;;;;;7314764;19;8962;-73
2023/08/31 07:26:55;;;;;;;;;;;16.10;99.90;;;;;;7319936;19;9284;-74
2023/08/31 07:29:24;;;;;;;;;;;16.60;99.90;;;;;;7322039;19;9348;-74
2023/08/31 07:31:53;;;;;;;;;;;17.00;99.90;;;;;;7318980;19;10833;-73
2023/08/31 07:34:23;;;;;;;;;;;17.20;99.90;;;;;;7314260;19;8945;-73
2023/08/31 07:36:52;;;;;;;;;;;17.60;99.90;;;;;;7321299;19;9620;-73
2023/08/31 07:39:23;;;;;;;;;;;18.00;99.90;;;;;;7320632;19;10594;-73
2023/08/31 07:41:54;;;;;;;;;;;18.30;99.90;;;;;;7320305;19;9411;-74
2023/08/31 07:44:23;;;;;;;;;;;18.70;99.90;;;;;;7312899;19;10298;-74
2023/08/31 07:46:51;;;;;;;;;;;18.80;99.90;;;;;;7319096;19;9133;-73
2023/08/31 07:49:20;;;;;;;;;;;19.00;99.90;;;;;;7319573;19;11000;-73
2023/08/31 07:51:49;;;;;;;;;;;19.30;99.90;;;;;;7320273;19;9277;-73
2023/08/31 07:54:25;;;;;;;;;;;19.40;99.90;;;;;;7314148;19;9233;-73
2023/08/31 07:57:14;;;;;;;;;;;19.60;99.90;;;;;;7318301;19;9751;-73
2023/08/31 07:59:43;;;;;;;;;;;19.80;99.90;;;;;;7321055;19;9285;-73
2023/08/31 08:02:12;;;;;;;;;;;19.80;99.90;;;;;;7321803;19;10211;-74
2023/08/31 08:04:41;;;;;;;;;;;19.70;99.90;;;;;;7312512;19;9221;-73
2023/08/31 08:07:11;;;;;;;;;;;19.80;99.90;;;;;;7313914;19;10314;-74
2023/08/31 08:09:43;;;;;;;;;;;19.80;99.70;;;;;;7320116;19;9329;-74
2023/08/31 08:12:12;;;;;;;;;;;19.70;99.90;;;;;;7321062;19;9131;-74
2023/08/31 08:14:41;;;;;;;;;;;19.80;99.80;;;;;;7314129;19;9370;-73
2023/08/31 08:17:10;;;;;;;;;;;19.80;99.40;;;;;;7320506;19;8945;-73
2023/08/31 08:19:39;;;;;;;;;;;19.60;99.30;;;;;;7319004;19;9169;-73
2023/08/31 08:22:09;;;;;;;;;;;19.50;99.90;;;;;;7320395;19;9262;-73
2023/08/31 08:24:38;;;;;;;;;;;19.30;99.90;;;;;;7302772;19;9228;-74
2023/08/31 08:27:10;;;;;;;;;;;19.30;99.90;;;;;;7320963;19;9206;-74
2023/08/31 08:29:39;;;;;;;;;;;19.40;99.90;;;;;;7320763;19;9274;-73
2023/08/31 08:32:08;;;;;;;;;;;19.70;98.10;;;;;;7318161;19;9106;-74
2023/08/31 08:34:37;;;;;;;;;;;19.50;98.70;;;;;;7311406;19;9372;-74
2023/08/31 08:37:07;;;;;;;;;;;19.50;98.90;;;;;;7327432;19;9245;-74
2023/08/31 08:39:36;;;;;;;;;;;19.40;99.60;;;;;;7324118;19;9237;-74
2023/08/31 08:42:28;;;;;;;;;;;19.70;99.00;;;;;;7317392;19;9483;-73
2023/08/31 08:44:59;;;;;;;;;;;19.60;98.10;;;;;;7313759;19;9433;-74
2023/08/31 08:47:29;;;;;;;;;;;19.60;97.10;;;;;;7320801;19;9429;-73
2023/08/31 08:50:02;;;;;;;;;;;19.40;99.20;;;;;;7320950;19;9227;-74
2023/08/31 08:52:31;;;;;;;;;;;19.60;99.30;;;;;;7318836;19;9564;-73
2023/08/31 08:55:22;;;;;;;;;;;19.60;99.90;;;;;;7313732;19;9504;-73
2023/08/31 08:57:53;;;;;;;;;;;19.90;99.20;;;;;;7315958;19;11228;-74
2023/08/31 09:00:22;;;;;;;;;;;20.00;98.90;;;;;;7320205;19;9225;-73
2023/08/31 09:03:11;;;;;;;;;;;20.10;97.80;;;;;;7313666;19;9275;-73
2023/08/31 09:05:41;;;;;;;;;;;20.20;95.90;;;;;;7312817;19;9245;-73
2023/08/31 09:08:31;;;;;;;;;;;20.30;94.50;;;;;;7315523;19;9280;-74
2023/08/31 09:11:01;;;;;;;;;;;20.30;95.10;;;;;;7319389;19;9217;-73
2023/08/31 09:13:33;;;;;;;;;;;20.30;94.20;;;;;;7321904;19;9254;-73
2023/08/31 09:16:02;;;;;;;;;;;20.20;94.60;;;;;;7313349;19;9252;-73
2023/08/31 09:18:34;;;;;;;;;;;20.20;94.50;;;;;;7319220;19;9256;-73
2023/08/31 09:21:04;;;;;;;;;;;20.20;95.00;;;;;;7320294;19;9236;-74
2023/08/31 09:23:34;;;;;;;;;;;20.20;94.50;;;;;;7318957;19;10141;-74
2023/08/31 09:26:03;;;;;;;;;;;20.30;94.30;;;;;;7312094;19;10128;-74
2023/08/31 09:28:35;;;;;;;;;;;20.30;94.40;;;;;;7316410;19;9296;-73
2023/08/31 09:31:09;;;;;;;;;;;20.20;93.60;;;;;;7315423;19;9325;-73
2023/08/31 09:33:38;;;;;;;;;;;20.40;93.40;;;;;;7317759;19;9326;-73
2023/08/31 09:36:10;;;;;;;;;;;20.50;93.00;;;;;;7312942;19;9521;-73
2023/08/31 09:38:45;;;;;;;;;;;20.50;91.50;;;;;;7318235;19;9620;-73
2023/08/31 09:41:15;;;;;;;;;;;20.40;92.30;;;;;;7320968;19;9525;-73
2023/08/31 09:43:46;;;;;;;;;;;20.50;92.10;;;;;;7318960;19;9268;-74
2023/08/31 09:46:15;;;;;;;;;;;20.60;91.80;;;;;;7310268;19;9180;-73
2023/08/31 09:48:46;;;;;;;;;;;20.60;91.60;;;;;;7319479;19;8944;-74
2023/08/31 09:51:22;;;;;;;;;;;20.70;90.90;;;;;;7319635;19;9200;-74
2023/08/31 09:53:55;;;;;;;;;;;20.60;90.40;;;;;;7317390;19;9253;-73
2023/08/31 09:56:27;;;;;;;;;;;20.70;90.60;;;;;;7314697;19;9245;-73
2023/08/31 09:58:58;;;;;;;;;;;20.80;90.20;;;;;;7319543;19;9421;-74
2023/08/31 10:01:28;;;;;;;;;;;20.90;88.90;;;;;;7317570;19;9309;-73
2023/08/31 10:03:57;;;;;;;;;;;21.10;87.40;;;;;;7320382;19;9663;-73
2023/08/31 10:06:27;;;;;;;;;;;20.80;87.60;;;;;;7321633;19;9252;-73
2023/08/31 10:08:57;;;;;;;;;;;20.70;87.30;;;;;;7326547;19;9510;-73
2023/08/31 10:11:28;;;;;;;;;;;20.40;88.60;;;;;;7324933;19;9273;-74
2023/08/31 10:14:01;;;;;;;;;;;20.10;90.40;;;;;;7321518;19;9213;-74
2023/08/31 10:16:30;;;;;;;;;;;19.80;91.30;;;;;;7319880;19;9462;-74
2023/08/31 10:18:59;;;;;;;;;;;19.50;92.60;;;;;;7324547;19;9441;-74
2023/08/31 10:21:29;;;;;;;;;;;19.40;93.40;;;;;;7322648;19;10622;-73
2023/08/31 10:23:58;;;;;;;;;;;19.50;93.80;;;;;;7321835;19;10413;-74
2023/08/31 10:26:30;;;;;;;;;;;19.40;94.20;;;;;;7321536;19;9384;-74
2023/08/31 10:29:04;;;;;;;;;;;19.30;94.70;;;;;;7324030;19;9004;-74
2023/08/31 10:31:34;;;;;;;;;;;19.40;95.00;;;;;;7323876;19;10724;-73
2023/08/31 10:34:09;;;;;;;;;;;19.60;94.40;;;;;;7321326;19;9779;-73
2023/08/31 10:36:41;;;;;;;;;;;20.10;93.00;;;;;;7318543;19;9536;-73
2023/08/31 10:39:15;;;;;;;;;;;20.20;92.10;;;;;;7325709;19;9222;-73
2023/08/31 10:41:56;;;;;;;;;;;20.30;91.60;;;;;;7325214;19;9614;-74
2023/08/31 10:44:29;;;;;;;;;;;20.00;91.70;;;;;;7308521;19;9370;-73
2023/08/31 10:47:02;;;;;;;;;;;19.80;92.10;;;;;;7313555;19;9386;-73
2023/08/31 10:49:32;;;;;;;;;;;19.60;93.30;;;;;;7321383;19;9574;-73
2023/08/31 10:52:19;;;;;;;;;;;19.50;94.10;;;;;;7326230;19;9260;-72
2023/08/31 10:54:50;;;;;;;;;;;19.60;96.50;;;;;;7324325;19;9257;-72
2023/08/31 10:57:19;;;;;;;;;;;19.80;94.10;;;;;;7317789;19;9181;-72
2023/08/31 10:59:53;;;;;;;;;;;20.20;93.30;;;;;;7324295;19;9295;-72
2023/08/31 11:02:47;;;;;;;;;;;20.40;92.00;;;;;;7323128;19;9174;-73
2023/08/31 11:05:17;;;;;;;;;;;20.40;92.00;;;;;;7315973;19;10898;-72
2023/08/31 11:07:50;;;;;;;;;;;20.40;91.60;;;;;;7300643;19;9489;-72
2023/08/31 11:10:22;;;;;;;;;;;20.30;91.80;;;;;;7320590;19;12427;-72
2023/08/31 11:12:53;;;;;;;;;;;20.30;91.80;;;;;;7324092;19;9297;-72
2023/08/31 11:15:29;;;;;;;;;;;20.50;91.30;;;;;;7312341;19;10018;-72
2023/08/31 11:17:59;;;;;;;;;;;20.70;90.60;;;;;;7323770;19;9272;-72
2023/08/31 11:20:30;;;;;;;;;;;20.80;89.40;;;;;;7323748;19;10510;-72
2023/08/31 11:23:00;;;;;;;;;;;21.10;88.50;;;;;;7322890;19;9236;-71
2023/08/31 11:25:34;;;;;;;;;;;21.20;87.10;;;;;;7310134;19;10437;-71
2023/08/31 11:28:05;;;;;;;;;;;21.30;85.70;;;;;;7312671;19;9276;-74
2023/08/31 11:30:37;;;;;;;;;;;21.40;84.80;;;;;;7302351;19;9300;-74
2023/08/31 11:33:11;;;;;;;;;;;21.40;84.20;;;;;;7320606;19;9128;-74
2023/08/31 11:35:45;;;;;;;;;;;21.30;84.10;;;;;;7321594;19;8997;-75
2023/08/31 11:38:15;;;;;;;;;;;21.30;83.20;;;;;;7317889;19;9418;-74
2023/08/31 11:40:44;;;;;;;;;;;20.70;81.40;;;;;;7315578;19;9348;-74
2023/08/31 11:43:14;;;;;;;;;;;20.90;83.80;;;;;;7321007;19;9261;-75
2023/08/31 11:45:46;;;;;;;;;;;20.30;78.60;;;;;;7322616;19;10274;-74
2023/08/31 11:48:15;;;;;;;;;;;20.90;83.90;;;;;;7317062;19;9197;-74
2023/08/31 11:50:45;;;;;;;;;;;21.10;83.40;;;;;;7316568;19;9249;-74
2023/08/31 11:53:14;;;;;;;;;;;21.30;82.40;;;;;;7321047;19;8944;-74
2023/08/31 11:55:53;;;;;;;;;;;21.50;81.60;;;;;;7321863;19;9628;-73
2023/08/31 11:58:24;;;;;;;;;;;21.50;81.30;;;;;;7315969;19;9506;-75
2023/08/31 12:01:03;;;;;;;;;;;21.60;81.00;;;;;;7318483;19;9119;-74
2023/08/31 12:03:46;;;;;;;;;;;21.70;80.50;;;;;;7321987;19;9446;-74
2023/08/31 12:06:19;;;;;;;;;;;21.60;80.10;;;;;;7314310;19;9127;-74
2023/08/31 12:08:48;;;;;;;;;;;21.70;79.60;;;;;;7317993;19;9434;-74
2023/08/31 12:11:18;;;;;;;;;;;21.70;79.40;;;;;;7318350;19;9241;-74
2023/08/31 12:13:47;;;;;;;;;;;21.60;79.30;;;;;;7319299;19;9309;-75
2023/08/31 12:16:18;;;;;;;;;;;21.40;79.60;;;;;;7312953;19;10344;-74
2023/08/31 12:18:48;;;;;;;;;;;21.40;80.10;;;;;;7318254;19;9557;-74
2023/08/31 12:21:17;;;;;;;;;;;21.10;79.40;;;;;;7318900;19;9245;-74
2023/08/31 12:23:46;;;;;;;;;;;21.20;80.40;;;;;;7320303;19;9211;-75
2023/08/31 12:26:16;;;;;;;;;;;20.90;80.80;;;;;;7308498;19;9407;-75
2023/08/31 12:28:45;;;;;;;;;;;20.90;81.20;;;;;;7318157;19;9301;-75
2023/08/31 12:31:14;;;;;;;;;;;20.60;80.90;;;;;;7321402;19;11180;-75
2023/08/31 12:33:46;;;;;;;;;;;18.60;85.20;;;;;;7321484;19;9277;-75
2023/08/31 12:36:15;;;;;;;;;;;18.00;91.50;;;;;;7311525;19;9500;-75
2023/08/31 12:38:44;;;;;;;;;;;17.80;95.20;;;;;;7318964;19;9284;-74
2023/08/31 12:41:13;;;;;;;;;;;17.80;98.60;;;;;;7321273;19;9217;-75
2023/08/31 12:43:42;;;;;;;;;;;17.80;99.50;;;;;;7321673;19;9467;-75
2023/08/31 12:46:13;;;;;;;;;;;17.60;98.70;;;;;;7309101;19;11645;-75
2023/08/31 12:48:45;;;;;;;;;;;17.60;99.90;;;;;;7317541;19;9116;-75
2023/08/31 12:51:14;;;;;;;;;;;17.40;99.90;;;;;;7319934;19;9731;-75
2023/08/31 12:53:43;;;;;;;;;;;17.50;99.90;;;;;;7319303;19;9492;-74
2023/08/31 12:56:12;;;;;;;;;;;17.90;99.90;;;;;;7311069;19;9456;-74
2023/08/31 12:58:41;;;;;;;;;;;17.70;99.70;;;;;;7317589;19;9574;-74
2023/08/31 13:01:13;;;;;;;;;;;18.30;99.90;;;;;;7322280;19;9000;-75
2023/08/31 13:03:45;;;;;;;;;;;18.80;98.80;;;;;;7317756;19;9413;-75
2023/08/31 13:06:14;;;;;;;;;;;19.10;97.90;;;;;;7313471;19;9332;-74
2023/08/31 13:08:44;;;;;;;;;;;19.00;97.20;;;;;;7315831;19;9476;-74
2023/08/31 13:11:13;;;;;;;;;;;19.10;96.90;;;;;;7319365;19;9257;-75
2023/08/31 13:14:02;;;;;;;;;;;19.20;95.30;;;;;;7314360;19;9327;-75
2023/08/31 13:16:32;;;;;;;;;;;19.40;96.20;;;;;;7316058;19;10649;-75
2023/08/31 13:19:03;;;;;;;;;;;19.30;95.70;;;;;;7319929;19;9613;-75
2023/08/31 13:21:32;;;;;;;;;;;19.30;95.80;;;;;;7319746;19;9225;-75
2023/08/31 13:24:02;;;;;;;;;;;19.50;95.50;;;;;;7315583;19;9518;-74
2023/08/31 13:26:32;;;;;;;;;;;19.40;95.50;;;;;;7312735;19;9164;-75
2023/08/31 13:29:01;;;;;;;;;;;19.20;95.80;;;;;;7316646;19;9645;-75
2023/08/31 13:31:30;;;;;;;;;;;19.10;96.40;;;;;;7319071;19;9454;-75
2023/08/31 13:33:59;;;;;;;;;;;19.30;96.10;;;;;;7316047;19;9470;-74
2023/08/31 13:36:50;;;;;;;;;;;19.40;95.90;;;;;;7314153;19;9343;-75
2023/08/31 13:39:19;;;;;;;;;;;19.30;96.80;;;;;;7324956;19;9157;-75
2023/08/31 13:42:08;;;;;;;;;;;19.30;96.60;;;;;;7323281;19;10188;-75
2023/08/31 13:44:37;;;;;;;;;;;19.40;95.00;;;;;;7316267;19;10304;-74
2023/08/31 13:47:07;;;;;;;;;;;19.60;95.20;;;;;;7318916;19;9290;-74
2023/08/31 13:49:36;;;;;;;;;;;19.70;94.70;;;;;;7325410;19;9308;-74
2023/08/31 13:52:10;;;;;;;;;;;19.70;94.30;;;;;;7324602;19;9272;-75
2023/08/31 13:54:39;;;;;;;;;;;19.70;94.60;;;;;;7317190;19;9265;-75
2023/08/31 13:57:08;;;;;;;;;;;20.00;93.90;;;;;;7320860;19;9293;-75
2023/08/31 13:59:37;;;;;;;;;;;20.20;92.90;;;;;;7314206;19;9384;-76
2023/08/31 14:02:06;;;;;;;;;;;20.50;92.00;;;;;;7315147;19;9584;-74
2023/08/31 14:04:35;;;;;;;;;;;20.80;91.00;;;;;;7313762;19;9273;-76
2023/08/31 14:07:07;;;;;;;;;;;20.90;88.60;;;;;;7322386;19;9249;-75
2023/08/31 14:09:36;;;;;;;;;;;21.00;89.40;;;;;;7321776;19;9236;-76
2023/08/31 14:12:06;;;;;;;;;;;21.10;88.00;;;;;;7322527;19;9244;-75
2023/08/31 14:14:35;;;;;;;;;;;21.20;86.80;;;;;;7311829;19;9245;-75
2023/08/31 14:17:04;;;;;;;;;;;21.10;86.70;;;;;;7308815;19;11254;-74
2023/08/31 14:19:35;;;;;;;;;;;21.00;87.30;;;;;;7303414;19;11305;-75
2023/08/31 14:22:09;;;;;;;;;;;20.90;87.50;;;;;;7312246;19;10711;-75
2023/08/31 14:24:39;;;;;;;;;;;20.80;87.90;;;;;;7322315;19;9171;-73
2023/08/31 14:27:09;;;;;;;;;;;20.60;88.70;;;;;;7324934;19;9257;-73
2023/08/31 14:29:39;;;;;;;;;;;20.50;89.30;;;;;;7325152;19;9213;-72
2023/08/31 14:32:28;;;;;;;;;;;20.50;89.90;;;;;;7324437;19;9450;-72
2023/08/31 14:34:57;;;;;;;;;;;20.00;91.10;;;;;;7317333;19;9487;-73
2023/08/31 14:37:29;;;;;;;;;;;20.10;91.30;;;;;;7324818;19;9218;-73
2023/08/31 14:39:58;;;;;;;;;;;20.20;91.30;;;;;;7318928;19;9268;-72
2023/08/31 14:42:27;;;;;;;;;;;20.00;93.30;;;;;;7326023;19;9181;-73
2023/08/31 14:44:56;;;;;;;;;;;20.30;92.40;;;;;;7322437;19;9476;-74
2023/08/31 14:47:25;;;;;;;;;;;20.10;91.80;;;;;;7323763;19;9263;-75
2023/08/31 14:49:54;;;;;;;;;;;20.20;91.80;;;;;;7310168;19;9267;-74
2023/08/31 14:52:23;;;;;;;;;;;20.20;92.10;;;;;;7270772;19;9205;-74
2023/08/31 14:54:55;;;;;;;;;;;20.20;91.80;;;;;;7318952;19;10242;-72